Time;durP1;ratioP1;P1;durP2;ratioP2;P2;SDS_P1;SDS_P2;PMS_P1;PMS_P2;Temp;Humidity;BMP_temperature;BMP_pressure;BME280_temperature;BME280_humidity;BME280_pressure;Samples;Min_cycle;Max_cycle;Signal;HPM_P1;HPM_P2
2023/01/19 00:00:29;;;;;;;29.83;21.23;;;7.80;95.90;;;;;;6338191;22;20420;-80
2023/01/19 00:02:55;;;;;;;30.70;21.42;;;7.70;95.90;;;;;;6339095;22;19999;-81
2023/01/19 00:05:21;;;;;;;26.73;18.13;;;7.70;95.90;;;;;;6338937;22;20313;-79
2023/01/19 00:07:46;;;;;;;27.08;18.30;;;7.80;96.00;;;;;;6338868;22;20424;-79
2023/01/19 00:10:12;;;;;;;30.98;20.70;;;7.80;96.10;;;;;;6338371;22;20092;-79
2023/01/19 00:12:38;;;;;;;28.30;20.13;;;7.80;95.70;;;;;;6338726;22;19995;-80
2023/01/19 00:15:04;;;;;;;27.63;19.23;;;7.90;95.60;;;;;;6338699;22;19999;-80
2023/01/19 00:17:29;;;;;;;30.35;19.40;;;8.00;95.60;;;;;;6338039;22;20002;-80
2023/01/19 00:19:55;;;;;;;27.92;19.70;;;8.00;95.40;;;;;;6338635;22;20003;-79
2023/01/19 00:22:21;;;;;;;28.65;19.50;;;8.10;95.50;;;;;;6339010;22;20003;-80
2023/01/19 00:24:46;;;;;;;27.52;18.10;;;8.10;95.40;;;;;;6339048;22;20030;-80
2023/01/19 00:27:12;;;;;;;26.73;18.42;;;8.20;95.40;;;;;;6338938;22;19999;-81
2023/01/19 00:29:38;;;;;;;25.05;18.65;;;8.20;95.30;;;;;;6336130;22;20096;-81
2023/01/19 00:32:04;;;;;;;26.80;18.38;;;8.30;95.30;;;;;;6338010;22;19999;-81
2023/01/19 00:34:48;;;;;;;29.58;19.48;;;8.30;95.30;;;;;;6338009;22;20010;-81
2023/01/19 00:37:16;;;;;;;26.98;18.63;;;8.30;95.20;;;;;;6338427;22;20044;-80
2023/01/19 00:39:42;;;;;;;26.20;19.30;;;8.40;95.20;;;;;;6337716;22;20007;-80
2023/01/19 00:44:56;;;;;;;25.90;17.80;;;8.50;95.00;;;;;;6338664;22;20451;-81
2023/01/19 00:47:21;;;;;;;23.35;17.60;;;8.50;94.90;;;;;;6338375;22;20007;-81
2023/01/19 00:49:47;;;;;;;26.55;18.20;;;8.50;95.10;;;;;;6337883;22;20496;-81
2023/01/19 00:52:13;;;;;;;24.48;17.25;;;8.50;94.90;;;;;;6337336;22;20059;-82
2023/01/19 00:54:38;;;;;;;23.83;17.15;;;8.50;94.80;;;;;;6339051;22;20072;-82
2023/01/19 00:57:04;;;;;;;24.30;17.33;;;8.60;94.80;;;;;;6338791;22;20275;-82
2023/01/19 00:59:29;;;;;;;27.88;17.83;;;8.60;94.70;;;;;;6337792;22;20025;-82
2023/01/19 01:01:55;;;;;;;21.58;16.67;;;8.60;94.70;;;;;;6337513;22;20009;-81
2023/01/19 01:04:21;;;;;;;24.77;17.17;;;8.60;94.70;;;;;;6338858;22;19999;-81
2023/01/19 01:06:46;;;;;;;24.80;16.55;;;8.60;94.60;;;;;;6310985;22;20485;-81
2023/01/19 01:09:12;;;;;;;23.80;17.08;;;8.60;94.50;;;;;;6337714;22;20007;-81
2023/01/19 01:11:41;;;;;;;22.08;15.98;;;8.60;94.70;;;;;;6337620;22;20420;-81
2023/01/19 01:14:11;;;;;;;22.42;16.40;;;8.60;94.60;;;;;;6337685;22;20006;-80
2023/01/19 01:16:37;;;;;;;23.48;17.17;;;8.60;94.60;;;;;;6337579;22;20018;-81
2023/01/19 01:19:03;;;;;;;22.90;16.63;;;8.60;94.60;;;;;;6337772;22;20007;-81
2023/01/19 01:21:29;;;;;;;22.98;16.38;;;8.70;94.60;;;;;;6336688;22;20086;-81
2023/01/19 01:23:54;;;;;;;21.50;15.60;;;8.70;94.60;;;;;;6337995;22;20013;-80
2023/01/19 01:26:21;;;;;;;21.77;16.08;;;8.60;94.50;;;;;;6337719;22;19999;-80
2023/01/19 01:28:46;;;;;;;21.52;15.77;;;8.60;94.50;;;;;;6337713;22;20003;-80
2023/01/19 01:31:12;;;;;;;21.45;15.32;;;8.60;94.50;;;;;;6337792;22;20121;-80
2023/01/19 01:33:38;;;;;;;25.27;16.75;;;8.60;94.50;;;;;;6338313;22;20017;-80
2023/01/19 01:36:04;;;;;;;23.52;14.82;;;8.60;94.50;;;;;;6337465;22;20306;-80
2023/01/19 01:38:29;;;;;;;19.58;14.02;;;8.60;94.60;;;;;;6337442;22;19999;-80
2023/01/19 01:40:55;;;;;;;19.25;14.43;;;8.60;94.60;;;;;;6337719;22;19999;-80
2023/01/19 01:43:20;;;;;;;20.77;14.85;;;7.70;94.30;;;;;;6338033;22;20070;-80
2023/01/19 01:45:46;;;;;;;29.42;19.52;;;8.50;94.50;;;;;;6338538;22;20059;-80
2023/01/19 01:48:29;;;;;;;24.05;17.70;;;8.40;94.60;;;;;;6311281;22;20060;-81
2023/01/19 01:53:51;;;;;;;30.58;22.35;;;8.00;94.70;;;;;;6340126;22;20014;-80
2023/01/19 01:56:24;;;;;;;31.75;20.42;;;7.80;95.10;;;;;;6339523;22;20070;-80
2023/01/19 01:58:51;;;;;;;25.67;17.85;;;7.70;95.30;;;;;;6339483;22;20074;-81
2023/01/19 02:04:01;;;;;;;28.30;18.90;;;7.80;95.50;;;;;;6339873;22;20010;-78
2023/01/19 02:06:27;;;;;;;27.58;18.02;;;7.80;95.50;;;;;;6339357;22;19995;-79
2023/01/19 02:14:40;;;;;;;28.92;20.83;;;7.80;95.30;;;;;;6339621;22;20013;-78
2023/01/19 02:17:06;;;;;;;26.45;18.25;;;7.70;95.50;;;;;;6339594;22;20027;-78
2023/01/19 02:19:42;;;;;;;25.85;19.00;;;7.60;95.70;;;;;;6339231;22;20044;-79
2023/01/19 02:22:17;;;;;;;24.23;17.70;;;7.70;96.00;;;;;;6311793;22;20013;-80
2023/01/19 02:24:43;;;;;;;33.25;22.98;;;7.70;95.70;;;;;;6339284;22;20027;-79
2023/01/19 02:27:10;;;;;;;28.98;20.35;;;7.50;96.00;;;;;;6339671;22;20490;-79
2023/01/19 02:29:36;;;;;;;27.23;18.77;;;7.50;96.40;;;;;;6339119;22;20003;-80
2023/01/19 02:32:02;;;;;;;24.15;17.52;;;7.60;96.10;;;;;;6339197;22;20006;-80
2023/01/19 02:34:29;;;;;;;29.15;20.55;;;7.70;96.00;;;;;;6339478;22;20013;-80
2023/01/19 02:37:06;;;;;;;24.73;17.05;;;7.70;95.90;;;;;;6339328;22;20078;-80
2023/01/19 02:39:31;;;;;;;29.50;19.98;;;7.80;96.10;;;;;;6338994;22;20354;-79
2023/01/19 02:42:05;;;;;;;25.60;17.83;;;7.70;95.90;;;;;;6311849;22;20042;-79
2023/01/19 02:44:31;;;;;;;26.85;19.13;;;7.70;96.00;;;;;;6339575;22;20002;-80
2023/01/19 02:46:57;;;;;;;24.65;17.48;;;7.70;95.80;;;;;;6339293;22;20293;-79
2023/01/19 02:49:27;;;;;;;26.52;17.35;;;7.70;95.90;;;;;;6338813;22;20009;-80
2023/01/19 02:51:53;;;;;;;29.15;20.27;;;7.70;95.80;;;;;;6339139;22;20074;-80
2023/01/19 02:54:37;;;;;;;25.50;18.80;;;7.70;95.80;;;;;;6339732;22;20037;-80
2023/01/19 02:57:09;;;;;;;25.15;17.58;;;7.60;95.90;;;;;;6338824;22;20052;-80
2023/01/19 02:59:53;;;;;;;22.83;16.60;;;7.70;95.90;;;;;;6339154;22;20356;-79
2023/01/19 03:02:46;;;;;;;23.52;16.40;;;7.80;95.80;;;;;;6339505;22;19999;-80
2023/01/19 03:05:34;;;;;;;25.13;17.05;;;7.90;95.70;;;;;;6338061;22;20343;-80
2023/01/19 03:08:19;;;;;;;23.83;16.58;;;8.00;95.60;;;;;;6338616;22;20003;-80
2023/01/19 03:11:00;;;;;;;21.42;15.23;;;8.10;95.50;;;;;;6339470;22;20061;-80
2023/01/19 03:13:48;;;;;;;21.60;15.32;;;8.20;95.40;;;;;;6339957;22;20007;-80
2023/01/19 03:16:29;;;;;;;23.55;15.95;;;8.30;95.30;;;;;;6338865;22;20048;-81
2023/01/19 03:19:00;;;;;;;20.42;15.45;;;8.30;95.10;;;;;;6338753;22;20009;-80
2023/01/19 03:21:28;;;;;;;22.73;15.15;;;8.40;95.10;;;;;;6339351;22;20074;-81
2023/01/19 03:24:00;;;;;;;18.88;13.60;;;8.40;95.00;;;;;;6339299;22;20432;-81
2023/01/19 03:26:29;;;;;;;20.13;14.65;;;8.40;94.90;;;;;;6338778;22;20003;-80
2023/01/19 03:28:57;;;;;;;19.02;13.63;;;8.50;94.80;;;;;;6310782;22;20011;-81
2023/01/19 03:31:26;;;;;;;18.60;14.27;;;8.50;94.70;;;;;;6338460;22;20006;-81
2023/01/19 03:33:58;;;;;;;18.05;13.10;;;8.50;94.70;;;;;;6338576;22;20329;-80
2023/01/19 03:36:34;;;;;;;18.80;13.93;;;8.50;94.50;;;;;;6338611;22;19995;-80
2023/01/19 03:39:03;;;;;;;18.38;13.48;;;8.60;94.50;;;;;;6338146;22;20393;-80
2023/01/19 03:41:31;;;;;;;16.85;12.30;;;8.60;94.40;;;;;;6337965;22;20044;-80
2023/01/19 03:43:58;;;;;;;17.08;11.77;;;8.60;94.30;;;;;;6338384;22;20409;-80
2023/01/19 03:46:26;;;;;;;18.17;13.15;;;8.60;94.30;;;;;;6310471;22;20014;-80
2023/01/19 03:48:52;;;;;;;15.23;11.25;;;8.70;94.40;;;;;;6338103;22;20090;-81
2023/01/19 03:51:19;;;;;;;21.33;13.90;;;8.70;94.30;;;;;;6338700;22;19999;-80
2023/01/19 03:53:45;;;;;;;15.82;11.88;;;8.70;94.20;;;;;;6338047;22;19999;-80
2023/01/19 03:56:19;;;;;;;19.85;13.60;;;8.60;94.00;;;;;;6338320;22;20007;-80
2023/01/19 03:58:45;;;;;;;17.50;12.02;;;8.60;93.80;;;;;;6336415;22;20007;-80
2023/01/19 04:01:12;;;;;;;15.45;12.05;;;8.60;94.00;;;;;;6337373;22;20007;-80
2023/01/19 04:03:38;;;;;;;17.38;12.63;;;8.60;94.00;;;;;;6338382;22;20030;-79
2023/01/19 04:06:04;;;;;;;17.27;12.55;;;8.70;93.90;;;;;;6338626;22;19995;-78
2023/01/19 04:08:31;;;;;;;18.90;14.15;;;8.70;93.80;;;;;;6337747;22;19998;-79
2023/01/19 04:10:57;;;;;;;15.88;11.98;;;8.70;93.70;;;;;;6338271;22;20128;-79
2023/01/19 04:13:23;;;;;;;17.33;12.25;;;8.80;93.70;;;;;;6338754;22;19995;-79
2023/01/19 04:15:48;;;;;;;17.30;12.38;;;8.70;93.20;;;;;;6338240;22;19991;-79
2023/01/19 04:18:14;;;;;;;13.68;11.05;;;8.70;93.40;;;;;;6337519;22;19999;-79
2023/01/19 04:20:40;;;;;;;16.73;11.73;;;8.70;93.20;;;;;;6338704;22;20306;-79
2023/01/19 04:23:05;;;;;;;14.77;10.68;;;8.70;93.40;;;;;;6338816;22;20310;-79
2023/01/19 04:25:32;;;;;;;13.73;10.50;;;8.70;93.40;;;;;;6337786;22;20298;-80
2023/01/19 04:27:57;;;;;;;15.02;11.20;;;8.70;93.30;;;;;;6338404;22;20078;-80
2023/01/19 04:30:23;;;;;;;15.80;10.30;;;8.70;93.20;;;;;;6337363;22;20431;-79
2023/01/19 04:32:50;;;;;;;16.77;10.65;;;8.70;93.30;;;;;;6338478;22;20056;-79
2023/01/19 04:35:16;;;;;;;15.65;11.27;;;8.70;93.10;;;;;;6337649;22;20014;-80
2023/01/19 04:37:43;;;;;;;13.48;10.70;;;8.70;93.20;;;;;;6337743;22;20325;-80
2023/01/19 04:40:10;;;;;;;11.65;9.65;;;8.70;93.20;;;;;;6337747;22;19998;-81
2023/01/19 04:42:35;;;;;;;12.75;9.02;;;8.70;93.20;;;;;;6338352;22;20003;-81
2023/01/19 04:45:01;;;;;;;10.77;8.10;;;8.80;93.20;;;;;;6338267;22;20026;-81
2023/01/19 04:47:27;;;;;;;10.82;8.00;;;8.70;93.00;;;;;;6338159;22;20383;-80
2023/01/19 04:49:52;;;;;;;11.77;8.18;;;8.80;93.00;;;;;;6338195;22;20018;-80
2023/01/19 04:52:19;;;;;;;9.80;7.15;;;8.70;92.90;;;;;;6338468;22;20420;-81
2023/01/19 04:54:45;;;;;;;8.15;6.88;;;8.80;93.10;;;;;;6338238;22;20026;-80
2023/01/19 04:57:10;;;;;;;9.88;6.78;;;8.80;93.10;;;;;;6338397;22;20007;-80
2023/01/19 04:59:36;;;;;;;8.05;6.38;;;8.80;93.10;;;;;;6337937;22;19999;-80
2023/01/19 05:02:01;;;;;;;7.57;6.10;;;8.70;93.00;;;;;;6338750;22;20068;-80
2023/01/19 05:04:27;;;;;;;6.57;5.38;;;8.70;93.00;;;;;;6338623;22;20026;-81
2023/01/19 05:06:53;;;;;;;8.10;5.57;;;8.70;93.10;;;;;;6337741;22;20010;-81
2023/01/19 05:09:19;;;;;;;8.00;5.88;;;8.70;93.20;;;;;;6338135;22;20022;-81
2023/01/19 05:11:45;;;;;;;8.95;6.47;;;8.70;93.10;;;;;;6338344;22;20312;-81
2023/01/19 05:14:10;;;;;;;6.55;4.72;;;8.60;93.20;;;;;;6338525;22;19999;-82
2023/01/19 05:16:36;;;;;;;5.68;4.80;;;8.70;93.30;;;;;;6337813;22;20027;-81
2023/01/19 05:19:01;;;;;;;6.53;4.85;;;8.60;93.40;;;;;;6338567;22;20030;-81
2023/01/19 05:21:27;;;;;;;5.53;3.78;;;8.60;93.50;;;;;;6341368;22;20002;-81
2023/01/19 05:23:53;;;;;;;4.68;3.47;;;8.60;93.50;;;;;;6313830;22;20006;-81
2023/01/19 05:26:19;;;;;;;4.22;3.35;;;8.60;93.60;;;;;;6341199;22;20085;-81
2023/01/19 05:28:45;;;;;;;4.80;3.75;;;8.60;93.60;;;;;;6340851;22;20002;-80
2023/01/19 05:31:10;;;;;;;3.45;2.83;;;8.70;93.70;;;;;;6340288;22;20014;-79
2023/01/19 05:33:36;;;;;;;2.78;2.40;;;8.60;93.60;;;;;;6341649;22;20015;-79
2023/01/19 05:36:03;;;;;;;2.58;2.00;;;8.60;93.60;;;;;;6341140;22;20002;-79
2023/01/19 05:38:32;;;;;;;2.88;2.03;;;8.50;93.70;;;;;;6341401;22;20010;-78
2023/01/19 05:40:58;;;;;;;4.50;1.85;;;8.50;93.70;;;;;;6338385;22;19999;-78
2023/01/19 05:43:24;;;;;;;1.40;1.30;;;8.50;93.60;;;;;;6340781;22;19999;-80
2023/01/19 05:45:50;;;;;;;1.63;1.27;;;8.60;93.50;;;;;;6340833;22;20006;-79
2023/01/19 05:48:16;;;;;;;1.90;1.00;;;8.50;93.50;;;;;;6340435;22;20002;-79
2023/01/19 05:50:42;;;;;;;1.52;0.90;;;8.50;93.40;;;;;;6340156;22;20007;-79
2023/01/19 05:53:08;;;;;;;0.63;0.60;;;8.50;93.40;;;;;;6340524;22;20003;-79
2023/01/19 05:55:33;;;;;;;0.98;0.70;;;8.50;93.10;;;;;;6340083;22;20424;-79
2023/01/19 05:58:00;;;;;;;0.73;0.60;;;8.60;93.20;;;;;;6312564;22;20006;-78
2023/01/19 06:00:26;;;;;;;0.68;0.40;;;8.50;93.00;;;;;;6338459;22;20010;-79
2023/01/19 06:02:52;;;;;;;0.52;0.38;;;8.60;93.00;;;;;;6310920;22;20467;-79
2023/01/19 06:05:18;;;;;;;0.32;0.30;;;8.50;92.50;;;;;;6339891;22;20101;-80
2023/01/19 06:07:44;;;;;;;0.30;0.30;;;8.50;92.70;;;;;;6341010;22;20385;-79
2023/01/19 06:10:10;;;;;;;0.95;0.22;;;;;;;;;;6340900;22;20006;-80
2023/01/19 06:12:39;;;;;;;0.20;0.20;;;8.40;92.40;;;;;;6340535;22;20038;-80
2023/01/19 06:15:05;;;;;;;0.20;0.20;;;8.40;92.30;;;;;;6339963;22;20494;-78
2023/01/19 06:17:32;;;;;;;0.20;0.20;;;8.30;92.40;;;;;;6340074;22;20425;-78
2023/01/19 06:19:57;;;;;;;0.20;0.20;;;8.30;92.10;;;;;;6338932;22;20038;-78
2023/01/19 06:22:23;;;;;;;0.10;0.10;;;8.20;92.30;;;;;;6340877;22;20005;-80
2023/01/19 06:24:49;;;;;;;0.30;0.30;;;8.30;92.40;;;;;;6340489;22;20002;-81
2023/01/19 06:27:15;;;;;;;0.43;0.20;;;8.40;92.30;;;;;;6338436;22;20060;-81
2023/01/19 06:29:41;;;;;;;2.30;0.40;;;8.30;92.00;;;;;;6340759;22;19998;-80
2023/01/19 06:32:07;;;;;;;0.35;0.30;;;8.40;92.10;;;;;;6339724;22;19999;-80
2023/01/19 06:34:32;;;;;;;1.17;0.40;;;8.30;92.10;;;;;;6337835;22;20007;-81
2023/01/19 06:36:58;;;;;;;0.28;0.28;;;8.30;92.10;;;;;;6339247;22;20070;-81
2023/01/19 06:39:24;;;;;;;1.73;0.60;;;8.40;92.00;;;;;;6339330;22;20003;-81
2023/01/19 06:41:50;;;;;;;0.20;0.20;;;8.40;92.20;;;;;;6311326;22;20011;-82
2023/01/19 06:44:16;;;;;;;2.58;0.50;;;8.50;92.30;;;;;;6339781;22;19999;-82
2023/01/19 06:46:41;;;;;;;0.82;0.30;;;8.50;92.10;;;;;;6339114;22;20063;-82
2023/01/19 06:49:07;;;;;;;0.50;0.40;;;8.50;92.20;;;;;;6339287;22;20026;-82
2023/01/19 06:51:33;;;;;;;0.63;0.47;;;8.50;92.20;;;;;;6340159;22;19995;-83
2023/01/19 06:53:59;;;;;;;1.65;0.38;;;8.60;92.20;;;;;;6339655;22;20002;-83
2023/01/19 06:56:25;;;;;;;0.30;0.30;;;8.50;92.20;;;;;;6339737;22;20087;-81
2023/01/19 06:58:52;;;;;;;0.65;0.50;;;8.60;92.40;;;;;;6339525;22;20030;-81
2023/01/19 07:01:18;;;;;;;1.35;0.40;;;8.50;92.20;;;;;;6338836;22;19995;-82
2023/01/19 07:03:44;;;;;;;1.25;0.40;;;8.60;92.20;;;;;;6338760;22;20078;-81
2023/01/19 07:06:10;;;;;;;0.50;0.40;;;8.60;92.10;;;;;;6339216;22;20027;-83
2023/01/19 07:08:37;;;;;;;2.50;0.47;;;8.60;91.90;;;;;;6339441;22;20427;-83
2023/01/19 07:11:05;;;;;;;0.80;0.50;;;8.50;91.80;;;;;;6339272;22;19999;-82
2023/01/19 07:13:35;;;;;;;0.30;0.30;;;8.50;92.00;;;;;;6339385;22;19995;-82
2023/01/19 07:16:06;;;;;;;1.08;0.40;;;8.40;92.00;;;;;;6339749;22;20111;-82
2023/01/19 07:18:32;;;;;;;0.60;0.43;;;8.50;92.00;;;;;;6339804;22;20364;-82
2023/01/19 07:20:57;;;;;;;0.50;0.30;;;8.50;92.00;;;;;;6339718;22;20061;-83
2023/01/19 07:23:23;;;;;;;0.30;0.30;;;8.50;91.70;;;;;;6294351;22;20064;-83
2023/01/19 07:25:49;;;;;;;1.75;0.50;;;8.60;91.90;;;;;;6334308;22;19999;-83
2023/01/19 07:28:15;;;;;;;2.58;0.50;;;8.60;91.70;;;;;;6342811;22;20003;-83
2023/01/19 07:30:45;;;;;;;0.47;0.40;;;8.60;91.80;;;;;;6338952;22;19999;-81
2023/01/19 07:33:11;;;;;;;0.50;0.50;;;8.70;91.70;;;;;;6338639;22;20397;-81
2023/01/19 07:35:37;;;;;;;1.10;0.40;;;8.60;91.50;;;;;;6338554;22;20002;-81
2023/01/19 07:38:03;;;;;;;0.40;0.40;;;8.60;91.50;;;;;;6338216;22;20432;-80
2023/01/19 07:40:28;;;;;;;1.00;0.50;;;8.70;91.50;;;;;;6337296;22;20010;-81
2023/01/19 07:42:54;;;;;;;2.17;0.60;;;8.60;91.20;;;;;;6338642;22;20003;-81
2023/01/19 07:45:20;;;;;;;0.47;0.30;;;8.70;91.40;;;;;;6338871;22;20002;-81
2023/01/19 07:47:48;;;;;;;1.05;0.68;;;8.70;91.20;;;;;;6338774;22;20125;-80
2023/01/19 07:50:15;;;;;;;1.85;0.50;;;8.60;90.90;;;;;;6338134;22;20362;-80
2023/01/19 07:52:41;;;;;;;0.50;0.35;;;8.60;91.20;;;;;;6336516;22;20006;-80
2023/01/19 07:55:08;;;;;;;4.45;0.60;;;8.60;91.30;;;;;;6338164;22;20317;-79
2023/01/19 07:57:34;;;;;;;0.93;0.65;;;8.60;91.00;;;;;;6338038;22;20005;-79
2023/01/19 08:00:00;;;;;;;0.60;0.60;;;8.60;91.30;;;;;;6310642;22;20429;-79
2023/01/19 08:02:26;;;;;;;0.85;0.50;;;8.60;90.90;;;;;;6338550;22;20003;-79
2023/01/19 08:04:52;;;;;;;1.85;0.60;;;8.60;90.90;;;;;;6339025;22;20003;-78
2023/01/19 08:07:18;;;;;;;1.77;0.60;;;8.60;90.90;;;;;;6338039;22;20002;-79
2023/01/19 08:09:43;;;;;;;0.98;0.63;;;8.60;91.00;;;;;;6339123;22;20642;-81
2023/01/19 08:12:09;;;;;;;1.33;0.80;;;8.70;91.00;;;;;;6339504;22;20022;-82
2023/01/19 08:14:34;;;;;;;1.08;0.50;;;8.70;91.00;;;;;;6338951;22;19998;-82
2023/01/19 08:17:01;;;;;;;1.73;0.70;;;8.80;91.00;;;;;;6338393;22;20005;-82
2023/01/19 08:19:27;;;;;;;0.68;0.65;;;8.80;91.00;;;;;;6338405;22;20010;-82
2023/01/19 08:21:53;;;;;;;1.52;0.68;;;8.90;91.00;;;;;;6339000;22;20003;-82
2023/01/19 08:24:21;;;;;;;0.80;0.50;;;8.90;90.70;;;;;;6310687;22;20033;-82
2023/01/19 08:26:48;;;;;;;1.00;0.75;;;8.90;90.70;;;;;;6338389;22;19999;-82
2023/01/19 08:29:14;;;;;;;1.13;0.70;;;8.90;90.70;;;;;;6338703;22;20003;-83
2023/01/19 08:31:40;;;;;;;1.42;0.60;;;8.80;90.80;;;;;;6339634;22;20002;-81
2023/01/19 08:34:07;;;;;;;0.50;0.47;;;8.90;90.60;;;;;;6338744;22;20014;-81
2023/01/19 08:36:33;;;;;;;2.90;0.80;;;8.90;90.80;;;;;;6338286;22;20006;-81
2023/01/19 08:38:59;;;;;;;1.15;0.52;;;8.80;90.10;;;;;;6338469;22;20073;-82
2023/01/19 08:41:24;;;;;;;1.13;0.57;;;8.80;90.30;;;;;;6338702;22;20301;-80
2023/01/19 08:43:50;;;;;;;3.08;1.00;;;8.70;90.10;;;;;;6338786;22;20078;-81
2023/01/19 08:46:19;;;;;;;1.65;0.80;;;8.60;90.20;;;;;;6338721;22;20462;-80
2023/01/19 08:48:47;;;;;;;2.50;0.82;;;8.60;90.50;;;;;;6338184;22;20018;-79
2023/01/19 08:51:14;;;;;;;3.60;0.50;;;8.70;90.50;;;;;;6338334;22;20010;-79
2023/01/19 08:53:41;;;;;;;1.30;0.85;;;8.70;90.50;;;;;;6338289;22;20003;-79
2023/01/19 08:56:11;;;;;;;0.73;0.60;;;8.70;90.60;;;;;;6310861;22;20081;-79
2023/01/19 08:58:46;;;;;;;1.30;0.68;;;8.70;90.60;;;;;;6310661;22;19999;-78
2023/01/19 09:01:17;;;;;;;0.50;0.50;;;8.70;90.50;;;;;;6338588;22;20509;-80
2023/01/19 09:03:43;;;;;;;2.15;0.57;;;8.70;90.50;;;;;;6338245;22;20424;-79
2023/01/19 09:06:11;;;;;;;2.35;0.63;;;8.50;90.30;;;;;;6338766;22;20051;-80
2023/01/19 09:08:38;;;;;;;0.95;0.68;;;8.60;90.70;;;;;;6338871;22;20002;-80
2023/01/19 09:11:06;;;;;;;1.90;0.77;;;8.60;90.70;;;;;;6338364;22;20030;-80
2023/01/19 09:13:32;;;;;;;0.95;0.70;;;8.60;90.70;;;;;;6338791;22;20409;-80
2023/01/19 09:16:00;;;;;;;1.00;0.60;;;8.70;90.80;;;;;;6339187;22;20001;-80
2023/01/19 09:18:26;;;;;;;1.80;0.60;;;8.70;90.80;;;;;;6338451;22;20034;-81
2023/01/19 09:20:53;;;;;;;0.98;0.63;;;8.80;90.90;;;;;;6338850;22;20421;-80
2023/01/19 09:23:19;;;;;;;0.88;0.43;;;8.80;90.90;;;;;;6338828;22;20006;-80
2023/01/19 09:25:46;;;;;;;1.20;0.70;;;8.80;90.80;;;;;;6338463;22;20003;-82
2023/01/19 09:28:15;;;;;;;0.75;0.45;;;8.90;90.80;;;;;;6339632;22;20057;-82
2023/01/19 09:30:42;;;;;;;0.50;0.40;;;8.90;90.80;;;;;;6340238;22;20006;-82
2023/01/19 09:33:16;;;;;;;1.05;0.40;;;8.80;90.70;;;;;;6341781;22;20158;-82
2023/01/19 09:35:43;;;;;;;0.47;0.30;;;8.80;90.50;;;;;;6338745;22;20014;-81
2023/01/19 09:38:10;;;;;;;2.13;0.43;;;8.80;90.60;;;;;;6337931;22;20045;-83
2023/01/19 09:40:58;;;;;;;2.70;0.52;;;8.70;90.30;;;;;;6339417;22;20003;-82
2023/01/19 09:43:46;;;;;;;0.63;0.40;;;8.80;90.70;;;;;;6338142;22;20003;-82
2023/01/19 09:46:18;;;;;;;1.85;0.40;;;8.80;90.50;;;;;;6310829;22;20003;-83
2023/01/19 09:49:03;;;;;;;0.98;0.50;;;8.90;90.30;;;;;;6338307;22;20409;-82
2023/01/19 09:51:37;;;;;;;0.80;0.30;;;8.90;90.50;;;;;;6338282;22;20003;-81
2023/01/19 09:54:13;;;;;;;1.10;0.50;;;8.90;90.00;;;;;;6339352;22;20070;-82
2023/01/19 09:56:39;;;;;;;0.63;0.43;;;8.90;90.20;;;;;;6340141;22;20066;-83
2023/01/19 09:59:24;;;;;;;2.65;0.38;;;8.90;89.80;;;;;;6340314;22;20002;-82
2023/01/19 10:02:11;;;;;;;0.75;0.40;;;8.90;89.20;;;;;;6338518;22;20003;-83
2023/01/19 10:04:41;;;;;;;0.88;0.30;;;8.90;89.50;;;;;;6339586;22;20325;-83
2023/01/19 10:07:22;;;;;;;2.25;0.50;;;8.80;89.40;;;;;;6339051;22;20077;-84
2023/01/19 10:10:01;;;;;;;0.38;0.30;;;8.80;89.00;;;;;;6340040;22;20436;-84
2023/01/19 10:12:36;;;;;;;0.38;0.38;;;8.80;89.60;;;;;;6340093;22;20070;-83
2023/01/19 10:15:32;;;;;;;1.05;0.40;;;8.80;89.10;;;;;;6340638;22;19994;-83
2023/01/19 10:18:11;;;;;;;0.47;0.30;;;8.80;89.40;;;;;;6339655;22;20023;-83
2023/01/19 10:20:50;;;;;;;1.35;0.68;;;8.80;89.60;;;;;;6341924;22;20002;-85
2023/01/19 10:23:29;;;;;;;0.65;0.40;;;8.80;89.60;;;;;;6339981;22;20002;-83
2023/01/19 10:25:58;;;;;;;0.77;0.40;;;8.80;88.50;;;;;;6338919;22;20026;-83
2023/01/19 10:28:26;;;;;;;0.50;0.30;;;8.80;89.00;;;;;;6340173;22;20006;-82
2023/01/19 10:30:54;;;;;;;0.52;0.30;;;8.70;88.10;;;;;;6338597;22;20062;-84
2023/01/19 10:33:20;;;;;;;0.60;0.45;;;8.70;88.50;;;;;;6338863;22;19999;-84
2023/01/19 10:35:47;;;;;;;2.15;0.40;;;8.70;89.30;;;;;;6339542;22;20052;-84
2023/01/19 10:38:14;;;;;;;1.45;0.30;;;8.70;89.70;;;;;;6336515;22;20002;-86
2023/01/19 10:41:17;;;;;;;0.40;0.30;;;8.70;90.00;;;;;;6334537;22;20060;-84
2023/01/19 10:43:44;;;;;;;0.40;0.30;;;8.60;90.00;;;;;;6290053;22;20007;-84
2023/01/19 10:46:29;;;;;;;0.68;0.40;;;8.50;89.40;;;;;;6311066;22;20392;-83
2023/01/19 10:48:55;;;;;;;0.40;0.30;;;8.50;90.00;;;;;;6339193;22;20305;-83
2023/01/19 10:51:22;;;;;;;0.90;0.30;;;8.50;90.00;;;;;;6339056;22;20002;-84
2023/01/19 10:54:04;;;;;;;0.38;0.30;;;8.50;90.10;;;;;;6339122;22;19994;-83
2023/01/19 10:56:37;;;;;;;0.35;0.20;;;8.30;90.30;;;;;;6339116;22;20045;-81
2023/01/19 10:59:05;;;;;;;2.20;0.20;;;8.30;90.60;;;;;;6339440;22;20385;-81
2023/01/19 11:01:35;;;;;;;0.25;0.10;;;8.30;90.50;;;;;;6311034;22;20340;-81
2023/01/19 11:04:19;;;;;;;0.35;0.20;;;8.30;90.60;;;;;;6337821;22;20369;-81
2023/01/19 11:06:45;;;;;;;0.70;0.15;;;8.20;90.90;;;;;;6338043;22;20074;-81
2023/01/19 11:09:14;;;;;;;0.32;0.20;;;8.20;91.00;;;;;;6338567;22;20349;-81
2023/01/19 11:11:43;;;;;;;0.38;0.35;;;8.10;90.90;;;;;;6339196;22;19999;-80
2023/01/19 11:14:19;;;;;;;0.40;0.30;;;8.10;91.00;;;;;;6339401;22;19995;-81
2023/01/19 11:16:52;;;;;;;0.30;0.20;;;8.20;91.40;;;;;;6339114;22;20070;-82
2023/01/19 11:19:28;;;;;;;0.40;0.30;;;8.00;91.10;;;;;;6338960;22;20078;-82
2023/01/19 11:22:20;;;;;;;0.38;0.30;;;7.90;91.40;;;;;;6339062;22;20005;-82
2023/01/19 11:24:46;;;;;;;1.13;0.52;;;8.00;91.20;;;;;;6339355;22;20049;-80
2023/01/19 11:27:18;;;;;;;0.47;0.40;;;7.90;91.30;;;;;;6339110;22;20379;-80
2023/01/19 11:29:52;;;;;;;0.30;0.30;;;8.00;91.30;;;;;;6339722;22;20476;-78
2023/01/19 11:32:21;;;;;;;0.40;0.40;;;8.00;91.40;;;;;;6339172;22;20056;-78
2023/01/19 11:34:47;;;;;;;0.20;0.20;;;8.00;91.40;;;;;;6338534;22;20021;-78
2023/01/19 11:37:19;;;;;;;0.57;0.40;;;8.10;91.30;;;;;;6337976;22;19999;-79
2023/01/19 11:39:54;;;;;;;0.40;0.40;;;8.00;91.40;;;;;;6338614;22;20129;-78
2023/01/19 11:42:20;;;;;;;0.35;0.30;;;;;;;;;;6338262;22;20464;-78
2023/01/19 11:44:56;;;;;;;0.82;0.50;;;8.00;91.50;;;;;;6334722;22;20002;-81
2023/01/19 11:47:29;;;;;;;1.33;0.40;;;8.10;91.60;;;;;;6337477;22;19999;-83
2023/01/19 11:50:22;;;;;;;0.30;0.30;;;8.20;91.60;;;;;;6337301;22;20078;-83
2023/01/19 11:53:06;;;;;;;1.08;0.50;;;8.20;91.10;;;;;;6334275;22;20017;-82
2023/01/19 11:55:42;;;;;;;0.50;0.50;;;8.20;91.30;;;;;;6336696;22;19999;-83
2023/01/19 11:58:17;;;;;;;1.90;0.70;;;8.10;91.60;;;;;;6337506;22;20064;-83
2023/01/19 12:00:48;;;;;;;0.70;0.52;;;8.00;91.40;;;;;;6338456;22;20074;-83
2023/01/19 12:03:31;;;;;;;1.88;0.52;;;8.10;91.50;;;;;;6339290;22;20313;-82
2023/01/19 12:06:05;;;;;;;0.73;0.40;;;8.10;91.60;;;;;;6338343;22;20074;-84
2023/01/19 12:08:42;;;;;;;0.98;0.77;;;8.10;91.70;;;;;;6337551;22;20077;-83
2023/01/19 12:11:11;;;;;;;1.23;0.80;;;8.10;91.80;;;;;;6337776;22;20111;-84
2023/01/19 12:13:40;;;;;;;0.82;0.70;;;8.10;92.10;;;;;;6336852;22;20440;-82
2023/01/19 12:16:19;;;;;;;2.10;0.80;;;7.90;92.20;;;;;;6337881;22;20422;-84
2023/01/19 12:19:09;;;;;;;0.43;0.43;;;7.90;92.20;;;;;;6338343;22;20025;-83
2023/01/19 12:21:35;;;;;;;0.73;0.73;;;7.80;92.20;;;;;;6338127;22;20069;-83
2023/01/19 12:24:10;;;;;;;1.95;0.60;;;7.80;92.20;;;;;;6337247;22;20383;-83
2023/01/19 12:26:40;;;;;;;2.83;0.63;;;7.70;92.10;;;;;;6338045;22;20581;-83
2023/01/19 12:29:16;;;;;;;1.15;0.68;;;7.70;92.30;;;;;;6337887;22;20006;-77
2023/01/19 12:31:42;;;;;;;1.13;0.60;;;7.70;92.50;;;;;;6336674;22;19999;-77
2023/01/19 12:34:30;;;;;;;0.93;0.40;;;7.60;92.30;;;;;;6337245;22;20017;-78
2023/01/19 12:37:03;;;;;;;1.50;0.80;;;7.60;92.30;;;;;;6335108;22;20026;-80
2023/01/19 12:39:31;;;;;;;0.75;0.52;;;7.60;92.30;;;;;;6337289;22;20003;-80
2023/01/19 12:42:11;;;;;;;1.95;0.65;;;7.40;92.50;;;;;;6336288;22;20065;-80
2023/01/19 12:44:37;;;;;;;;;;;7.40;92.50;;;;;;6336957;22;20006;-80
2023/01/19 12:47:14;;;;;;;1.27;0.60;;;7.40;92.50;;;;;;6336583;22;19898;-83
2023/01/19 12:49:50;;;;;;;0.73;0.40;;;7.50;92.80;;;;;;6335410;22;20015;-83
2023/01/19 12:52:19;;;;;;;1.38;0.90;;;7.50;92.60;;;;;;6336841;22;20015;-83
2023/01/19 12:55:00;;;;;;;0.60;0.60;;;7.40;92.70;;;;;;6335991;22;20006;-84
2023/01/19 12:57:34;;;;;;;1.35;0.70;;;7.30;92.60;;;;;;6309350;22;20011;-83
2023/01/19 13:00:20;;;;;;;1.95;0.93;;;7.30;92.80;;;;;;6306855;22;20097;-80
2023/01/19 13:02:48;;;;;;;1.45;0.93;;;7.30;93.00;;;;;;6335900;22;20410;-85
2023/01/19 13:05:21;;;;;;;1.85;0.93;;;7.30;92.90;;;;;;6334262;22;20052;-83
2023/01/19 13:08:02;;;;;;;1.50;1.02;;;7.40;92.70;;;;;;6337770;22;20051;-84
2023/01/19 13:10:58;;;;;;;0.75;0.70;;;7.40;93.10;;;;;;6309168;22;20013;-84
2023/01/19 13:13:35;;;;;;;1.60;0.90;;;7.40;93.00;;;;;;6334538;22;20505;-79
2023/01/19 13:16:23;;;;;;;1.45;0.95;;;7.50;92.90;;;;;;6333231;22;20340;-79